A- A+ FrançaisEnglishEspañol中国

Services sur Internet Soldes sur Internet Des idées de cadeaux Météo Météo aéro

La météo à : Autours de vous Tarbes-Lourdes-PyrénéesPontoise-Cormeilles-En-VexinChateauroux-Deols Paris-Orly

manche à air

La météo aéronautique pour les pilotes, la préparation du vol avec les METAR (METeorological Aerodrome Report, message d'observation des conditions météorologiques pour l'aviation) et Les TAF (Terminal Aerodrome Forecast : message de prévision à court terme des conditions météorologiques pour l'aviation). Et les autres ressources comme les VAC (Visual Approch Chart) et les NOTAM (Notice To Airman) pour préprer les vols.

Aéroport Peace River (Canada) / OACI CYPE/ IATA YPE

L'altitude de l'aéroport Peace River est de 571 m = 1873 ft. Il est situé à proximité de Peace River (Canada). La météo générale à 5 jours est disponible pour Peace River situé à 10.3 km.

METAR de l'aéroport Peace River - CYPE

CYPE 291700Z 11003KT 080V170 15SM FEW050 FEW250 02/M04 A3043 RMK SC1CI1 SLP336

Décodage du METAR de l'aéroport Peace River (CA)

METAR émis par CYPE le dimanche 29 septembre 2019 à 17:00 heure TU. Attention ce METAR est obsolète car il a été émis il y a 8 heure et 59 minutes.

La visibilité est de 24.1 km = 15 sm.

La température est de 2°C = 36 °F et le point rosée est de -4°C = 25 °F . Ce qui correspond à 64% d'humidité relative.

Le QNH est de 1030 hPa = 30.42 inHg

Vent de 3 kt = 6 km/h, orienté à 110°.

Nuages : Quelques nuages à 5000 ft = 1520 mètres. Quelques nuages à 25000 ft = 7620 mètres.

RMK SC1CI1 SLP336

TAF de l'aéroport Peace River - CYPE

CYPE 150638Z 1507/1519 10005KT P6SM OVC020 TEMPO 1507/1512 SCT020 BKN160 FM151200 12008KT P6SM SCT020 BKN140 TEMPO 1512/1518 BKN020 BKN140 FM151800 14012G22KT P6SM SCT020 OVC080 TEMPO 1518/1519 BKN020 OVC080 RMK NXT FCST BY 151300Z

CYPE 150638Z 1507/1519 10005KT P6SM couverture nuageuse soudée à 020 temporairement 1507/1512 nuages épars à 020 couverture nuageuse fragmentée à 160 FM151200 12008KT P6SM nuages épars à 020 couverture nuageuse fragmentée à 140 temporairement 1512/1518 couverture nuageuse fragmentée à 020 couverture nuageuse fragmentée à 140 FM151800 14012G22KT P6SM nuages épars à 020 couverture nuageuse soudée à 080 temporairement 1518/1519 couverture nuageuse fragmentée à 020 couverture nuageuse soudée à 080 remarques NXT trombe ST BY 151300Z

Aéroport à proximité de Peace River

Météo générale à 5 jours à Peace River (10.3 km)Aéroport High Prairie (111 km)Aéroport Grand Prairie (147 km)Aéroport Dawson Creek (179 km)Aéroport Slave Lake (197 km)Aéroport Fort St John (204 km)Aéroport Whitecourt (254 km)

Vue aérienne de l'aéroport Peace River

NOTAM de l'aéroport Peace River

Les NOTAM sont fournis sans aucune garantie de leur actualité. Le pilote est le seul responsable de la vérification de sa validité avant de l'utiliser opérationnellement pour préparer un vol ou l'utiliser lors de sa navigation.

Pas de NOTAM

Sources des données